Time;durP1;ratioP1;P1;durP2;ratioP2;P2;SDS_P1;SDS_P2;PMS_P1;PMS_P2;Temp;Humidity;BMP_temperature;BMP_pressure;BME280_temperature;BME280_humidity;BME280_pressure;Samples;Min_cycle;Max_cycle;Signal;HPM_P1;HPM_P2
2022/11/22 00:00:00;;;;;;;39.05;19.65;;;;;;;1.52;100.00;99392.41;10613097;27;20537;-71
2022/11/22 00:05:02;;;;;;;39.85;19.80;;;;;;;1.40;100.00;99371.50;10624424;27;20035;-71
2022/11/22 00:10:07;;;;;;;40.20;19.80;;;;;;;1.39;100.00;99359.00;10607280;27;20038;-71
2022/11/22 00:15:07;;;;;;;46.40;21.35;;;;;;;1.38;100.00;99354.63;10624233;27;20027;-71
2022/11/22 00:20:10;;;;;;;44.38;21.90;;;;;;;1.32;100.00;99344.72;10626343;27;20058;-72
2022/11/22 00:25:11;;;;;;;46.05;23.63;;;;;;;1.33;100.00;99327.41;10626496;27;20098;-72
2022/11/22 00:30:12;;;;;;;53.53;23.58;;;;;;;1.32;100.00;99322.19;10620442;27;20066;-72
2022/11/22 00:35:12;;;;;;;57.78;25.00;;;;;;;1.30;100.00;99302.63;10622830;27;20047;-73
2022/11/22 00:40:12;;;;;;;55.13;23.23;;;;;;;1.35;100.00;99311.72;10620107;27;20039;-69
2022/11/22 00:45:13;;;;;;;61.40;25.73;;;;;;;1.33;100.00;99311.13;10606279;27;20136;-72
2022/11/22 00:50:14;;;;;;;57.13;25.42;;;;;;;1.36;100.00;99309.84;10622536;27;20054;-72
2022/11/22 00:55:14;;;;;;;62.65;26.73;;;;;;;1.47;100.00;99306.34;10624801;27;20490;-73
2022/11/22 01:00:15;;;;;;;66.68;29.05;;;;;;;1.52;100.00;99311.06;10622087;27;20039;-72
2022/11/22 01:05:19;;;;;;;62.28;27.70;;;;;;;1.42;100.00;99301.59;10618575;27;20043;-73
2022/11/22 01:10:19;;;;;;;60.22;27.95;;;;;;;1.41;100.00;99302.66;10626704;27;20050;-73
2022/11/22 01:15:20;;;;;;;68.18;29.63;;;;;;;1.46;100.00;99295.72;10617286;27;20040;-71
2022/11/22 01:20:20;;;;;;;56.20;24.85;;;;;;;1.50;100.00;99291.47;10581483;27;20032;-72
2022/11/22 01:25:20;;;;;;;62.78;28.13;;;;;;;1.57;100.00;99293.03;10564725;27;20047;-71
2022/11/22 01:30:21;;;;;;;55.72;27.15;;;;;;;1.51;100.00;99266.00;10581109;28;20024;-71
2022/11/22 01:35:21;;;;;;;58.08;25.65;;;;;;;1.57;100.00;99281.31;10580270;28;20040;-71
2022/11/22 01:40:22;;;;;;;59.13;27.40;;;;;;;1.56;100.00;99282.41;10579415;28;20065;-72
2022/11/22 01:45:28;;;;;;;54.97;25.73;;;;;;;1.61;100.00;99288.78;10562752;27;20047;-71
2022/11/22 01:50:30;;;;;;;52.80;25.60;;;;;;;1.63;100.00;99291.25;10586018;27;20043;-71
2022/11/22 01:55:31;;;;;;;54.95;25.15;;;;;;;1.59;100.00;99273.78;10589658;27;20032;-71
2022/11/22 02:00:32;;;;;;;47.47;25.50;;;;;;;1.26;100.00;99220.97;10589654;27;20035;-72
2022/11/22 02:05:32;;;;;;;43.75;22.65;;;;;;;1.66;100.00;99282.66;10589390;27;20746;-72
2022/11/22 02:10:34;;;;;;;45.25;22.98;;;;;;;1.66;100.00;99271.78;10587697;27;20043;-71
2022/11/22 02:15:35;;;;;;;45.13;23.70;;;;;;;1.66;100.00;99258.22;10589047;27;20061;-72
2022/11/22 02:20:36;;;;;;;43.77;22.30;;;;;;;1.69;100.00;99265.88;10588936;27;20088;-71
2022/11/22 02:25:39;;;;;;;42.55;21.27;;;;;;;1.71;100.00;99247.47;10588199;27;20035;-72
2022/11/22 02:30:40;;;;;;;39.80;20.70;;;;;;;1.56;100.00;99228.97;10588735;27;20065;-72
2022/11/22 02:35:40;;;;;;;41.42;21.52;;;;;;;1.72;100.00;99246.44;10586481;27;20130;-72
2022/11/22 02:41:04;;;;;;;41.47;21.95;;;;;;;1.74;100.00;99249.75;10586336;27;20035;-70
2022/11/22 02:46:06;;;;;;;49.92;23.10;;;;;;;1.67;100.00;99230.03;10573675;27;20036;-72
2022/11/22 02:51:07;;;;;;;43.63;22.50;;;;;;;1.77;100.00;99237.59;10587156;27;20112;-71
2022/11/22 02:56:07;;;;;;;46.95;22.85;;;;;;;1.75;100.00;99229.66;10586423;27;20045;-72
2022/11/22 03:01:08;;;;;;;46.72;22.55;;;;;;;1.75;100.00;99240.53;10587628;27;20039;-72
2022/11/22 03:06:08;;;;;;;52.28;24.10;;;;;;;1.81;100.00;99245.00;10569232;27;20128;-72
2022/11/22 03:11:09;;;;;;;45.58;21.02;;;;;;;1.73;100.00;99226.38;10587847;27;20073;-71
2022/11/22 03:16:09;;;;;;;45.67;22.40;;;;;;;1.71;100.00;99228.50;10587468;27;20036;-72
2022/11/22 03:21:10;;;;;;;53.63;23.60;;;;;;;1.87;100.00;99248.66;10552363;27;20118;-72
2022/11/22 03:26:10;;;;;;;45.30;21.52;;;;;;;1.87;100.00;99228.84;10579660;27;20036;-73
2022/11/22 03:31:11;;;;;;;41.90;20.83;;;;;;;1.91;100.00;99238.16;10543859;28;20048;-68
2022/11/22 03:36:11;;;;;;;52.00;22.08;;;;;;;1.96;100.00;99257.28;10544157;28;20052;-72
2022/11/22 03:41:12;;;;;;;46.78;21.70;;;;;;;1.99;100.00;99256.81;10543153;28;20499;-71
2022/11/22 03:46:14;;;;;;;45.92;20.77;;;;;;;2.00;100.00;99258.44;10560127;28;20032;-72
2022/11/22 03:51:14;;;;;;;53.53;23.25;;;;;;;2.02;100.00;99261.75;10542403;28;20044;-71
2022/11/22 03:56:15;;;;;;;47.53;21.95;;;;;;;2.06;100.00;99257.50;10566478;28;20036;-71
2022/11/22 04:01:15;;;;;;;52.97;23.02;;;;;;;1.66;100.00;99187.69;10541083;28;20114;-71
2022/11/22 04:06:16;;;;;;;53.30;22.95;;;;;;;2.07;100.00;99252.88;10559168;28;20612;-71
2022/11/22 04:11:16;;;;;;;45.72;22.63;;;;;;;2.01;100.00;99243.81;10542971;28;20032;-71
2022/11/22 04:16:16;;;;;;;47.25;22.90;;;;;;;2.11;100.00;99254.91;10542158;28;20024;-71
2022/11/22 04:21:35;;;;;;;51.85;23.15;;;;;;;2.09;100.00;99248.88;10573850;27;20044;-70
2022/11/22 04:26:36;;;;;;;53.80;22.83;;;;;;;2.10;100.00;99253.25;10539645;28;20032;-71
2022/11/22 04:36:55;;;;;;;52.78;25.00;;;;;;;2.18;100.00;99266.44;10541187;28;20047;-70
2022/11/22 04:52:53;;;;;;;50.58;24.08;;;;;;;2.31;100.00;99253.66;10580706;27;20043;-72
2022/11/22 04:57:54;;;;;;;55.15;25.40;;;;;;;2.31;100.00;99253.66;10567568;27;20054;-71
2022/11/22 05:02:55;;;;;;;55.42;22.95;;;;;;;2.33;100.00;99270.53;10581779;27;20040;-70
2022/11/22 05:07:57;;;;;;;51.38;22.73;;;;;;;2.36;100.00;99273.63;10565320;27;20100;-71
2022/11/22 05:12:57;;;;;;;57.65;24.38;;;;;;;2.40;100.00;99279.41;10564326;27;20040;-71
2022/11/22 05:17:58;;;;;;;56.45;22.98;;;;;;;2.44;100.00;99280.56;10563572;27;20063;-72
2022/11/22 05:28:17;;;;;;;68.53;25.60;;;;;;;2.50;100.00;99276.06;10579582;27;20063;-71
2022/11/22 05:33:18;;;;;;;54.92;24.45;;;;;;;2.53;100.00;99287.28;10564504;28;20024;-71
2022/11/22 05:38:18;;;;;;;57.10;25.40;;;;;;;2.48;100.00;99272.75;10581045;27;20065;-72
2022/11/22 05:43:19;;;;;;;51.70;23.92;;;;;;;2.59;100.00;99277.34;10563362;28;20372;-72
2022/11/22 05:48:19;;;;;;;62.92;23.10;;;;;;;2.56;100.00;99273.22;10581411;28;20040;-73
2022/11/22 05:53:20;;;;;;;54.50;24.75;;;;;;;2.25;100.00;99233.72;10580741;27;20042;-71
2022/11/22 05:58:20;;;;;;;59.30;25.45;;;;;;;2.66;100.00;99282.63;10561290;28;20043;-71
2022/11/22 06:03:21;;;;;;;56.72;23.92;;;;;;;2.70;100.00;99294.66;10581189;28;20395;-70
2022/11/22 06:08:21;;;;;;;55.30;23.63;;;;;;;2.72;100.00;99293.34;10580828;28;20059;-71
2022/11/22 06:13:21;;;;;;;59.45;24.05;;;;;;;2.76;100.00;99290.97;10581958;28;20051;-71
2022/11/22 06:18:22;;;;;;;52.72;23.17;;;;;;;2.79;100.00;99293.19;10581357;28;20148;-71
2022/11/22 06:23:22;;;;;;;56.90;23.13;;;;;;;2.86;100.00;99287.66;10580568;27;20039;-71
2022/11/22 06:28:23;;;;;;;58.22;26.30;;;;;;;2.87;100.00;99295.53;10579755;28;20553;-71
2022/11/22 06:33:23;;;;;;;51.50;24.38;;;;;;;2.77;100.00;99262.72;10580219;28;20570;-71
2022/11/22 06:38:24;;;;;;;64.95;25.67;;;;;;;2.91;100.00;99293.97;10570190;27;20032;-71
2022/11/22 06:43:26;;;;;;;53.40;25.23;;;;;;;2.82;100.00;99276.44;10587322;27;20036;-71
2022/11/22 06:48:34;;;;;;;51.72;23.25;;;;;;;2.95;100.00;99281.56;10585826;28;20055;-71
2022/11/22 06:53:35;;;;;;;56.60;23.60;;;;;;;3.00;100.00;99284.38;10563157;27;20035;-72
2022/11/22 06:58:36;;;;;;;59.38;23.80;;;;;;;2.93;100.00;99289.13;10587244;27;20059;-71
2022/11/22 07:03:37;;;;;;;55.65;24.70;;;;;;;2.98;100.00;99304.72;10587526;27;20039;-71
2022/11/22 07:08:38;;;;;;;56.50;25.17;;;;;;;2.99;100.00;99315.34;10586431;27;20035;-72
2022/11/22 07:13:39;;;;;;;55.33;24.02;;;;;;;2.95;100.00;99307.91;10587964;27;20465;-72
2022/11/22 07:18:39;;;;;;;62.63;26.98;;;;;;;3.03;100.00;99308.34;10568554;27;20104;-71
2022/11/22 07:23:40;;;;;;;54.72;24.10;;;;;;;3.10;100.00;99315.53;10584842;27;20039;-72
2022/11/22 07:28:41;;;;;;;53.47;24.77;;;;;;;3.14;100.00;99333.00;10586350;27;20036;-71
2022/11/22 07:33:42;;;;;;;61.42;25.77;;;;;;;3.18;100.00;99326.03;10586131;27;20031;-71
2022/11/22 07:38:42;;;;;;;56.67;25.52;;;;;;;3.26;100.00;99330.25;10568189;27;20058;-71
2022/11/22 07:43:43;;;;;;;58.17;24.63;;;;;;;3.29;100.00;99335.19;10586765;27;20049;-72
2022/11/22 07:48:43;;;;;;;60.60;24.83;;;;;;;3.23;100.00;99331.56;10541120;28;20032;-70
2022/11/22 07:53:44;;;;;;;54.28;24.17;;;;;;;3.33;100.00;99345.34;10542417;28;20093;-71
2022/11/22 07:58:44;;;;;;;56.42;22.80;;;;;;;3.41;100.00;99346.81;10576850;27;20063;-71
2022/11/22 08:03:45;;;;;;;54.63;24.33;;;;;;;3.52;100.00;99350.59;10567093;28;20032;-71
2022/11/22 08:08:45;;;;;;;56.30;23.38;;;;;;;3.58;100.00;99352.31;10566921;27;20039;-71
2022/11/22 08:13:45;;;;;;;56.78;23.95;;;;;;;3.69;100.00;99367.75;10583523;27;20040;-72
2022/11/22 08:18:47;;;;;;;54.47;23.75;;;;;;;3.79;100.00;99357.03;10584428;27;20040;-72
2022/11/22 08:23:47;;;;;;;55.80;23.77;;;;;;;3.84;100.00;99348.97;10581624;27;20042;-71
2022/11/22 08:28:48;;;;;;;53.83;23.05;;;;;;;4.01;100.00;99348.94;10582408;27;20040;-71
2022/11/22 08:33:51;;;;;;;51.25;22.40;;;;;;;4.15;100.00;99362.22;10584742;27;20031;-72
2022/11/22 08:38:52;;;;;;;39.22;19.73;;;;;;;4.34;100.00;99365.47;10565242;27;20453;-71
2022/11/22 08:43:52;;;;;;;47.60;19.92;;;;;;;4.46;100.00;99368.94;10564225;27;20065;-72
2022/11/22 08:48:53;;;;;;;41.95;19.20;;;;;;;4.58;100.00;99369.63;10582953;27;20532;-71
2022/11/22 08:53:53;;;;;;;38.40;17.50;;;;;;;4.77;100.00;99380.25;10582132;27;20035;-72
2022/11/22 08:58:54;;;;;;;39.75;16.65;;;;;;;4.94;100.00;99377.47;10598575;27;20046;-71
2022/11/22 09:03:54;;;;;;;30.80;14.85;;;;;;;5.00;100.00;99385.47;10619473;27;20027;-71
2022/11/22 09:08:55;;;;;;;29.40;14.02;;;;;;;5.13;100.00;99386.16;10568685;27;20043;-72
2022/11/22 09:13:56;;;;;;;30.30;11.75;;;;;;;4.98;100.00;99351.31;10559199;28;20040;-71
2022/11/22 09:18:56;;;;;;;28.05;11.23;;;;;;;5.35;100.00;99397.84;10561204;28;20081;-71
2022/11/22 09:23:57;;;;;;;23.75;8.98;;;;;;;5.41;100.00;99398.72;10561093;28;20047;-72
2022/11/22 09:28:57;;;;;;;30.52;9.43;;;;;;;5.57;100.00;99408.75;10570386;28;20039;-72
2022/11/22 09:33:58;;;;;;;21.10;7.40;;;;;;;5.55;100.00;99401.91;10561661;27;20039;-72
2022/11/22 09:38:58;;;;;;;26.52;7.88;;;;;;;5.57;100.00;99402.47;10556410;28;20032;-72
2022/11/22 09:44:20;;;;;;;11.63;4.45;;;;;;;5.72;100.00;99413.53;10540260;28;20591;-72
2022/11/22 09:49:43;;;;;;;19.52;4.68;;;;;;;5.83;100.00;99396.16;10556773;28;20079;-72
2022/11/22 09:54:54;;;;;;;15.73;4.05;;;;;;;5.91;100.00;99396.75;10582902;28;25404;-72
2022/11/22 10:00:03;;;;;;;19.85;4.22;;;;;;;6.07;100.00;99398.56;10580663;28;20040;-72
2022/11/22 10:05:25;;;;;;;9.98;2.95;;;;;;;6.03;100.00;99400.19;10579211;28;20031;-72
2022/11/22 10:10:34;;;;;;;18.95;3.38;;;;;;;6.21;100.00;99415.34;10582994;28;20066;-72
2022/11/22 10:15:51;;;;;;;10.93;3.58;;;;;;;6.17;100.00;99411.50;10569117;27;20042;-71
2022/11/22 10:20:52;;;;;;;10.68;4.78;;;;;;;6.05;100.00;99403.47;10534173;28;20488;-73
2022/11/22 10:26:19;;;;;;;19.52;3.28;;;;;;;5.99;100.00;99420.91;10535765;27;20047;-73
2022/11/22 10:31:28;;;;;;;17.45;2.92;;;;;;;6.03;100.00;99422.84;10572842;27;20023;-73
2022/11/22 10:36:40;;;;;;;7.93;2.47;;;;;;;6.02;100.00;99425.88;10588384;27;20047;-73
2022/11/22 10:42:00;;;;;;;9.43;2.88;;;;;;;6.02;100.00;99412.22;10590176;27;20040;-72
2022/11/22 10:47:09;;;;;;;11.27;2.17;;;;;;;6.31;100.00;99423.63;10588188;27;20032;-72
2022/11/22 10:52:31;;;;;;;9.13;2.53;;;;;;;6.52;100.00;99424.59;10588613;27;20059;-72
2022/11/22 10:57:33;;;;;;;17.85;3.47;;;;;;;6.62;100.00;99402.78;10587638;27;20040;-72
2022/11/22 11:03:01;;;;;;;9.43;1.70;;;;;;;6.63;100.00;99407.16;10586806;27;20069;-72
2022/11/22 11:08:02;;;;;;;12.05;3.10;;;;;;;6.48;100.00;99412.53;10588580;27;20067;-72
2022/11/22 11:13:11;;;;;;;7.38;2.53;;;;;;;6.47;100.00;99402.72;10569184;28;20390;-72
2022/11/22 11:18:18;;;;;;;6.80;1.27;;;;;;;6.56;100.00;99392.09;10586217;27;20485;-71
2022/11/22 11:23:18;;;;;;;7.10;1.42;;;;;;;6.76;100.00;99388.63;10599457;27;20047;-71
2022/11/22 11:28:20;;;;;;;7.25;1.63;;;;;;;6.94;100.00;99382.72;10630363;27;20064;-71
2022/11/22 11:33:28;;;;;;;8.73;2.58;;;;;;;6.93;100.00;99385.72;10630186;27;20032;-71
2022/11/22 11:38:40;;;;;;;8.63;1.60;;;;;;;7.09;100.00;99392.91;10617449;27;20040;-70
2022/11/22 11:43:41;;;;;;;7.45;1.52;;;;;;;7.30;100.00;99390.22;10544110;27;20035;-71
2022/11/22 11:48:42;;;;;;;6.60;1.70;;;;;;;7.56;100.00;99358.25;10566403;28;20043;-70
2022/11/22 11:53:53;;;;;;;7.93;1.27;;;;;;;7.70;100.00;99367.59;10567176;28;20062;-71
2022/11/22 11:58:55;;;;;;;7.72;1.30;;;;;;;7.61;100.00;99358.28;10527729;28;20055;-70
2022/11/22 12:03:58;;;;;;;8.52;1.52;;;;;;;7.37;100.00;99369.72;10515031;28;20059;-71
2022/11/22 12:08:58;;;;;;;9.50;1.63;;;;;;;7.26;100.00;99363.41;10509377;28;20040;-70
2022/11/22 12:14:02;;;;;;;8.30;1.50;;;;;;;7.73;100.00;99382.66;10563153;28;20459;-71
2022/11/22 12:19:25;;;;;;;6.90;1.40;;;;;;;7.58;100.00;99353.34;10533252;28;20043;-70
2022/11/22 12:24:44;;;;;;;6.25;2.28;;;;;;;7.52;100.00;99357.16;10566660;28;20042;-71
2022/11/22 12:29:44;;;;;;;4.05;1.80;;;;;;;7.23;100.00;99352.16;10584838;28;20061;-70
2022/11/22 12:34:48;;;;;;;7.97;1.63;;;;;;;7.36;100.00;99373.56;10561533;28;20042;-70
2022/11/22 12:39:50;;;;;;;6.88;1.30;;;;;;;7.23;100.00;99368.59;10544832;28;20039;-69
2022/11/22 12:44:53;;;;;;;6.85;1.63;;;;;;;7.20;100.00;99377.34;10527538;28;20047;-70
2022/11/22 12:50:01;;;;;;;5.75;1.35;;;;;;;6.96;100.00;99352.34;10510345;28;20042;-70
2022/11/22 12:55:15;;;;;;;7.80;1.75;;;;;;;6.90;100.00;99362.44;10538068;27;20039;-70
2022/11/22 13:00:23;;;;;;;5.85;1.80;;;;;;;6.96;100.00;99372.31;10542040;28;20051;-71
2022/11/22 13:05:33;;;;;;;10.13;1.60;;;;;;;6.89;100.00;99366.28;10501055;28;20039;-71
2022/11/22 13:10:37;;;;;;;9.70;1.40;;;;;;;6.84;100.00;99379.94;10505700;28;20130;-70
2022/11/22 13:15:39;;;;;;;7.35;1.65;;;;;;;6.81;100.00;99397.69;10521305;28;20047;-71
2022/11/22 13:20:41;;;;;;;8.88;1.67;;;;;;;6.75;100.00;99397.94;10518356;28;20404;-71
2022/11/22 13:26:03;;;;;;;7.53;1.58;;;;;;;6.66;100.00;99403.91;10529236;28;20036;-72
2022/11/22 13:31:22;;;;;;;6.72;2.17;;;;;;;6.66;100.00;99397.63;10519813;28;20040;-71
2022/11/22 13:36:26;;;;;;;6.65;1.83;;;;;;;6.60;100.00;99388.56;10499686;28;20377;-71
2022/11/22 13:41:40;;;;;;;7.93;1.40;;;;;;;6.64;100.00;99406.09;10519598;28;20436;-72
2022/11/22 13:47:00;;;;;;;7.30;1.35;;;;;;;6.61;100.00;99405.78;10517652;28;20386;-72
2022/11/22 13:52:12;;;;;;;4.45;1.88;;;;;;;6.44;100.00;99384.91;10526637;28;20072;-72
2022/11/22 13:57:25;;;;;;;9.35;2.22;;;;;;;6.58;100.00;99398.13;10502187;28;20040;-72
2022/11/22 14:02:26;;;;;;;5.43;1.10;;;;;;;6.54;100.00;99394.28;10532943;28;20096;-72
2022/11/22 14:07:33;;;;;;;5.30;1.27;;;;;;;6.57;100.00;99389.06;10524866;28;20039;-71
2022/11/22 14:12:54;;;;;;;8.10;1.27;;;;;;;6.56;100.00;99392.91;10541499;28;20040;-73
2022/11/22 14:18:18;;;;;;;2.58;1.25;;;;;;;6.41;100.00;99368.22;10542244;28;20037;-72
2022/11/22 14:23:36;;;;;;;4.40;0.90;;;;;;;6.47;100.00;99386.31;10559319;28;20047;-71
2022/11/22 14:29:04;;;;;;;3.90;0.98;;;;;;;6.39;100.00;99386.81;10560718;28;20039;-71
2022/11/22 14:34:34;;;;;;;6.57;1.10;;;;;;;6.34;100.00;99387.56;10558731;28;20135;-71
2022/11/22 14:39:43;;;;;;;5.43;1.00;;;;;;;6.33;100.00;99388.66;10540903;28;20036;-71
2022/11/22 14:44:44;;;;;;;5.85;0.90;;;;;;;6.26;100.00;99377.97;10565534;28;20036;-72
2022/11/22 14:49:45;;;;;;;6.68;1.45;;;;;;;6.29;100.00;99384.00;10558295;28;20114;-72
2022/11/22 14:54:48;;;;;;;2.65;1.20;;;;;;;6.15;100.00;99370.75;10540688;28;20047;-71
2022/11/22 15:00:17;;;;;;;3.78;0.90;;;;;;;6.18;100.00;99386.66;10547927;28;20051;-72
2022/11/22 15:05:36;;;;;;;3.40;1.17;;;;;;;6.14;100.00;99380.06;10564712;28;20044;-71
2022/11/22 15:11:03;;;;;;;5.90;1.92;;;;;;;6.10;100.00;99376.22;10570942;27;20040;-71
2022/11/22 15:16:13;;;;;;;4.20;1.42;;;;;;;5.97;100.00;99357.50;10545808;27;20271;-71
2022/11/22 15:21:16;;;;;;;4.57;1.35;;;;;;;6.06;100.00;99361.44;10560451;27;20467;-72
2022/11/22 15:26:17;;;;;;;3.38;1.67;;;;;;;6.02;100.00;99357.56;10571942;28;20126;-71
2022/11/22 15:31:33;;;;;;;3.30;1.70;;;;;;;6.02;100.00;99357.56;10562128;27;20035;-71
2022/11/22 15:36:57;;;;;;;8.82;1.48;;;;;;;5.99;100.00;99364.34;10549684;27;20044;-71
2022/11/22 15:41:58;;;;;;;8.93;1.65;;;;;;;6.02;100.00;99376.69;10562917;27;20092;-71
2022/11/22 15:46:58;;;;;;;5.45;1.98;;;;;;;6.03;100.00;99381.06;10529800;27;20143;-70
2022/11/22 15:51:59;;;;;;;7.50;1.38;;;;;;;6.00;100.00;99385.13;10558752;28;20530;-72
2022/11/22 15:57:05;;;;;;;3.10;1.67;;;;;;;5.92;100.00;99380.13;10544242;28;20061;-72
2022/11/22 16:02:14;;;;;;;7.45;1.75;;;;;;;6.02;100.00;99399.34;10546952;28;20036;-71
2022/11/22 16:07:29;;;;;;;7.68;1.67;;;;;;;5.99;100.00;99388.13;10535698;28;20055;-71
2022/11/22 16:12:34;;;;;;;6.05;1.88;;;;;;;5.92;100.00;99387.50;10540008;28;20055;-71
2022/11/22 16:17:35;;;;;;;8.40;2.27;;;;;;;5.87;100.00;99399.22;10562692;27;20047;-72
2022/11/22 16:22:36;;;;;;;8.70;2.38;;;;;;;5.78;100.00;99398.84;10562039;28;20043;-71
2022/11/22 16:27:40;;;;;;;6.97;1.30;;;;;;;5.81;100.00;99403.78;10562438;27;20036;-71
2022/11/22 16:32:41;;;;;;;6.60;1.60;;;;;;;5.73;100.00;99401.53;10545701;28;20039;-71
2022/11/22 16:37:43;;;;;;;4.50;1.30;;;;;;;5.88;100.00;99419.16;10556112;27;20040;-71
2022/11/22 16:42:44;;;;;;;3.25;1.42;;;;;;;5.84;100.00;99419.66;10562360;28;20040;-71
2022/11/22 16:47:44;;;;;;;3.95;1.88;;;;;;;5.79;100.00;99399.69;10560619;28;20036;-71
2022/11/22 16:52:45;;;;;;;4.75;1.35;;;;;;;5.81;100.00;99406.53;10559258;28;20036;-71
2022/11/22 16:57:45;;;;;;;8.77;1.77;;;;;;;5.88;100.00;99422.69;10559641;27;20028;-71
2022/11/22 17:02:46;;;;;;;8.43;1.55;;;;;;;5.92;100.00;99414.81;10559387;28;20095;-71
2022/11/22 17:07:46;;;;;;;3.75;1.00;;;;;;;5.91;100.00;99407.69;10551467;27;20057;-71
2022/11/22 17:12:46;;;;;;;6.00;1.13;;;;;;;5.91;100.00;99407.69;10562797;28;20036;-70
2022/11/22 17:17:47;;;;;;;6.47;1.42;;;;;;;5.92;100.00;99403.88;10558874;28;20031;-70
2022/11/22 17:22:47;;;;;;;3.20;1.00;;;;;;;5.89;100.00;99415.31;10541666;28;20494;-70
2022/11/22 17:27:48;;;;;;;6.18;1.30;;;;;;;5.89;100.00;99421.63;10560254;28;20055;-71
2022/11/22 17:32:48;;;;;;;2.83;1.45;;;;;;;5.88;100.00;99436.34;10542112;28;20028;-71
2022/11/22 17:37:52;;;;;;;2.70;0.80;;;;;;;5.82;100.00;99421.00;10561505;28;20164;-71
2022/11/22 17:42:53;;;;;;;2.33;1.25;;;;;;;5.89;100.00;99437.16;10560497;28;20032;-71
2022/11/22 17:47:54;;;;;;;5.57;1.10;;;;;;;5.92;100.00;99431.19;10597150;27;20104;-70
2022/11/22 17:52:54;;;;;;;6.80;1.40;;;;;;;5.91;100.00;99430.34;10581374;27;20062;-71
2022/11/22 17:57:54;;;;;;;7.15;1.10;;;;;;;5.88;100.00;99430.06;10593342;27;20031;-71
2022/11/22 18:02:55;;;;;;;2.72;0.73;;;;;;;5.92;100.00;99436.66;10563165;27;20039;-71
2022/11/22 18:07:55;;;;;;;4.05;1.00;;;;;;;5.95;100.00;99436.97;10570980;28;20092;-71
2022/11/22 18:12:56;;;;;;;5.03;2.00;;;;;;;5.89;100.00;99432.56;10562567;28;20109;-71
2022/11/22 18:17:57;;;;;;;4.88;1.20;;;;;;;5.90;100.00;99428.72;10580547;28;20043;-71
2022/11/22 18:22:57;;;;;;;5.60;1.30;;;;;;;5.86;100.00;99427.59;10593301;27;20101;-71
2022/11/22 18:27:57;;;;;;;6.93;1.13;;;;;;;5.96;100.00;99448.75;10578519;28;20035;-71
2022/11/22 18:32:59;;;;;;;1.95;1.02;;;;;;;5.94;100.00;99434.50;10567127;27;20098;-70
2022/11/22 18:37:59;;;;;;;4.63;1.40;;;;;;;5.90;100.00;99416.97;10589197;28;20032;-71
2022/11/22 18:43:00;;;;;;;3.05;0.80;;;;;;;6.01;100.00;99446.06;10586485;27;20023;-70
2022/11/22 18:48:00;;;;;;;6.50;1.42;;;;;;;6.00;100.00;99444.44;10587909;27;20028;-70
2022/11/22 18:53:01;;;;;;;6.18;1.35;;;;;;;6.04;100.00;99445.56;10568905;27;20036;-70
2022/11/22 18:58:01;;;;;;;3.80;0.95;;;;;;;6.07;100.00;99447.75;10604497;27;20039;-71
2022/11/22 19:03:02;;;;;;;6.20;1.40;;;;;;;6.02;100.00;99445.81;10624766;27;20035;-71
2022/11/22 19:08:03;;;;;;;6.55;1.20;;;;;;;6.06;100.00;99444.19;10625143;27;20129;-71
2022/11/22 19:13:03;;;;;;;5.20;1.33;;;;;;;6.08;100.00;99452.16;10621585;27;20027;-71
2022/11/22 19:18:04;;;;;;;4.80;0.98;;;;;;;6.06;100.00;99457.88;10589605;27;20035;-71
2022/11/22 19:23:05;;;;;;;6.70;1.52;;;;;;;6.05;100.00;99452.66;10603396;27;20099;-71
2022/11/22 19:28:05;;;;;;;5.68;1.20;;;;;;;6.04;100.00;99448.28;10626208;27;20027;-71
2022/11/22 19:33:06;;;;;;;5.85;1.95;;;;;;;6.04;100.00;99451.03;10625502;27;20027;-71
2022/11/22 19:38:08;;;;;;;4.13;0.93;;;;;;;6.05;100.00;99436.25;10626103;27;20035;-71
2022/11/22 19:43:09;;;;;;;5.00;1.52;;;;;;;5.94;100.00;99429.84;10626827;27;20061;-72
2022/11/22 19:48:09;;;;;;;4.85;2.45;;;;;;;5.96;100.00;99427.72;10625559;27;20081;-70
2022/11/22 19:53:10;;;;;;;4.97;1.75;;;;;;;6.04;100.00;99440.91;10626450;27;20062;-71
2022/11/22 19:58:10;;;;;;;4.10;1.38;;;;;;;6.02;100.00;99432.16;10625588;27;20035;-71
2022/11/22 20:03:14;;;;;;;5.05;2.80;;;;;;;5.98;100.00;99438.41;10626772;27;20093;-71
2022/11/22 20:08:14;;;;;;;3.55;1.15;;;;;;;6.00;100.00;99445.25;10624949;27;20047;-70
2022/11/22 20:13:15;;;;;;;2.83;1.52;;;;;;;6.00;100.00;99430.75;10625034;27;20144;-70
2022/11/22 20:18:15;;;;;;;3.92;1.60;;;;;;;6.04;100.00;99435.44;10590646;27;20088;-70
2022/11/22 20:23:16;;;;;;;5.45;1.55;;;;;;;6.12;100.00;99453.28;10584692;27;20040;-71
2022/11/22 20:28:16;;;;;;;2.50;1.45;;;;;;;6.10;100.00;99436.31;10566000;28;20460;-70
2022/11/22 20:33:17;;;;;;;6.22;1.58;;;;;;;6.10;100.00;99439.06;10618581;27;20035;-71
2022/11/22 20:38:17;;;;;;;4.30;1.88;;;;;;;6.19;100.00;99467.53;10623603;27;20035;-71
2022/11/22 20:43:18;;;;;;;4.45;2.75;;;;;;;6.17;100.00;99471.63;10624039;27;20098;-67
2022/11/22 20:48:18;;;;;;;6.90;2.63;;;;;;;6.05;100.00;99467.13;10623989;27;20035;-71
2022/11/22 20:53:19;;;;;;;3.95;2.97;;;;;;;6.02;100.00;99475.84;10622882;27;20039;-70
2022/11/22 20:58:19;;;;;;;5.63;2.92;;;;;;;5.97;100.00;99485.91;10600124;27;20036;-71
2022/11/22 21:03:20;;;;;;;6.35;3.60;;;;;;;5.84;100.00;99460.63;10504015;28;20039;-70
2022/11/22 21:08:21;;;;;;;11.60;4.60;;;;;;;5.92;100.00;99474.91;10527966;28;20079;-70
2022/11/22 21:13:21;;;;;;;6.53;4.30;;;;;;;5.90;100.00;99466.97;10514214;28;20035;-70
2022/11/22 21:18:22;;;;;;;7.32;4.40;;;;;;;5.89;100.00;99469.94;10506542;28;20468;-71
2022/11/22 21:23:22;;;;;;;9.85;4.60;;;;;;;5.86;100.00;99471.28;10543087;28;20059;-70
2022/11/22 21:28:23;;;;;;;9.90;5.63;;;;;;;5.88;100.00;99473.78;10542865;28;20059;-70
2022/11/22 21:33:24;;;;;;;10.77;5.22;;;;;;;5.88;100.00;99484.69;10530369;28;20067;-71
2022/11/22 21:38:24;;;;;;;12.52;5.78;;;;;;;5.85;100.00;99481.41;10511350;28;20046;-70
2022/11/22 21:43:25;;;;;;;11.93;5.65;;;;;;;5.85;100.00;99488.78;10528603;28;20047;-69
2022/11/22 21:48:25;;;;;;;11.80;6.57;;;;;;;5.83;100.00;99485.47;10544997;28;20036;-70
2022/11/22 21:53:27;;;;;;;8.73;6.75;;;;;;;5.86;100.00;99490.41;10550777;28;20127;-69
2022/11/22 21:58:28;;;;;;;13.02;6.90;;;;;;;5.94;100.00;99497.31;10550683;28;20172;-70
2022/11/22 22:03:29;;;;;;;9.73;7.28;;;;;;;5.97;100.00;99499.56;10533881;28;20042;-70
2022/11/22 22:08:29;;;;;;;12.55;7.30;;;;;;;6.01;100.00;99504.25;10544884;28;20075;-70
2022/11/22 22:13:30;;;;;;;9.75;7.45;;;;;;;5.98;100.00;99495.75;10576583;28;20065;-70
2022/11/22 22:18:31;;;;;;;12.27;8.32;;;;;;;5.99;100.00;99494.66;10558949;28;20071;-70
2022/11/22 22:23:32;;;;;;;12.85;8.45;;;;;;;6.03;100.00;99504.00;10530782;28;20084;-70
2022/11/22 22:28:34;;;;;;;13.52;8.55;;;;;;;6.00;100.00;99493.59;10528095;28;20043;-70
2022/11/22 22:33:35;;;;;;;15.40;10.65;;;;;;;6.05;100.00;99507.28;10549925;28;20073;-71
2022/11/22 22:38:37;;;;;;;14.73;10.32;;;;;;;5.98;100.00;99501.22;10568494;28;20061;-71
2022/11/22 22:43:39;;;;;;;16.05;11.50;;;;;;;6.07;100.00;99505.13;10552917;28;20059;-71
2022/11/22 22:48:39;;;;;;;14.95;11.23;;;;;;;6.08;100.00;99515.00;10551932;28;20091;-70
2022/11/22 22:53:40;;;;;;;16.30;10.95;;;;;;;6.06;100.00;99506.22;10554085;27;20047;-70
2022/11/22 22:58:41;;;;;;;19.15;12.55;;;;;;;6.06;100.00;99514.44;10580623;28;20195;-70
2022/11/22 23:03:41;;;;;;;20.83;13.57;;;;;;;5.74;100.00;99468.69;10552750;27;20036;-69
2022/11/22 23:08:46;;;;;;;23.08;14.10;;;;;;;6.10;100.00;99520.19;10587706;27;20032;-70
2022/11/22 23:13:47;;;;;;;23.67;13.95;;;;;;;6.10;100.00;99510.09;10573495;27;20556;-70
2022/11/22 23:18:47;;;;;;;26.90;16.88;;;;;;;6.12;100.00;99520.75;10585016;27;20040;-69
2022/11/22 23:23:51;;;;;;;27.60;16.17;;;;;;;6.13;100.00;99506.00;10586061;27;20032;-69
2022/11/22 23:28:54;;;;;;;28.90;18.02;;;;;;;6.10;100.00;99507.38;10567145;27;20051;-69
2022/11/22 23:33:56;;;;;;;29.00;18.30;;;;;;;6.18;100.00;99515.09;10587438;27;20043;-70